sensor_id;sensor_type;location;lat;lon;timestamp;P1;durP1;ratioP1;P2;durP2;ratioP2
71162;SDS011;58858;50.948;6.566;2023-06-26T00:07:20;5.82;;;4.88;;
71162;SDS011;58858;50.948;6.566;2023-06-26T00:17:21;5.32;;;4.40;;
71162;SDS011;58858;50.948;6.566;2023-06-26T00:27:22;5.38;;;4.40;;
71162;SDS011;58858;50.948;6.566;2023-06-26T00:37:23;6.35;;;4.32;;
71162;SDS011;58858;50.948;6.566;2023-06-26T00:47:24;9.70;;;5.65;;
71162;SDS011;58858;50.948;6.566;2023-06-26T00:57:26;5.88;;;4.68;;
71162;SDS011;58858;50.948;6.566;2023-06-26T01:07:28;9.48;;;4.75;;
71162;SDS011;58858;50.948;6.566;2023-06-26T01:17:30;6.38;;;5.10;;
71162;SDS011;58858;50.948;6.566;2023-06-26T01:27:31;7.03;;;5.13;;
71162;SDS011;58858;50.948;6.566;2023-06-26T01:38:10;6.85;;;4.72;;
71162;SDS011;58858;50.948;6.566;2023-06-26T01:48:19;7.30;;;4.18;;
71162;SDS011;58858;50.948;6.566;2023-06-26T01:59:11;5.43;;;4.57;;
71162;SDS011;58858;50.948;6.566;2023-06-26T02:09:14;7.47;;;5.63;;
71162;SDS011;58858;50.948;6.566;2023-06-26T02:19:16;7.93;;;5.30;;
71162;SDS011;58858;50.948;6.566;2023-06-26T02:29:31;4.82;;;4.30;;
71162;SDS011;58858;50.948;6.566;2023-06-26T02:39:33;6.88;;;4.30;;
71162;SDS011;58858;50.948;6.566;2023-06-26T02:49:36;8.47;;;4.30;;
71162;SDS011;58858;50.948;6.566;2023-06-26T02:59:38;7.93;;;4.72;;
71162;SDS011;58858;50.948;6.566;2023-06-26T03:09:44;5.50;;;4.43;;
71162;SDS011;58858;50.948;6.566;2023-06-26T03:19:46;8.25;;;5.05;;
71162;SDS011;58858;50.948;6.566;2023-06-26T03:29:53;5.78;;;3.92;;
71162;SDS011;58858;50.948;6.566;2023-06-26T03:39:56;13.57;;;5.00;;
71162;SDS011;58858;50.948;6.566;2023-06-26T03:49:57;16.00;;;5.88;;
71162;SDS011;58858;50.948;6.566;2023-06-26T03:59:59;9.68;;;4.18;;
71162;SDS011;58858;50.948;6.566;2023-06-26T04:10:00;6.13;;;4.20;;
71162;SDS011;58858;50.948;6.566;2023-06-26T04:20:02;7.50;;;3.97;;
71162;SDS011;58858;50.948;6.566;2023-06-26T04:30:07;8.17;;;3.90;;
71162;SDS011;58858;50.948;6.566;2023-06-26T04:40:08;7.70;;;4.18;;
71162;SDS011;58858;50.948;6.566;2023-06-26T04:50:11;9.30;;;4.38;;
71162;SDS011;58858;50.948;6.566;2023-06-26T05:00:13;8.13;;;4.35;;
71162;SDS011;58858;50.948;6.566;2023-06-26T05:10:15;7.45;;;4.00;;
71162;SDS011;58858;50.948;6.566;2023-06-26T05:20:18;6.72;;;3.70;;
71162;SDS011;58858;50.948;6.566;2023-06-26T05:30:19;9.45;;;4.32;;
71162;SDS011;58858;50.948;6.566;2023-06-26T05:40:20;8.45;;;3.40;;
71162;SDS011;58858;50.948;6.566;2023-06-26T05:50:21;12.90;;;5.50;;
71162;SDS011;58858;50.948;6.566;2023-06-26T06:00:23;9.13;;;4.55;;
71162;SDS011;58858;50.948;6.566;2023-06-26T06:10:24;12.32;;;3.97;;
71162;SDS011;58858;50.948;6.566;2023-06-26T06:20:25;6.60;;;2.92;;
71162;SDS011;58858;50.948;6.566;2023-06-26T06:30:26;8.20;;;3.75;;
71162;SDS011;58858;50.948;6.566;2023-06-26T06:40:27;7.97;;;3.80;;
71162;SDS011;58858;50.948;6.566;2023-06-26T06:50:28;10.05;;;3.72;;
71162;SDS011;58858;50.948;6.566;2023-06-26T07:00:29;7.80;;;5.15;;
71162;SDS011;58858;50.948;6.566;2023-06-26T07:10:32;10.02;;;4.60;;
71162;SDS011;58858;50.948;6.566;2023-06-26T07:20:33;9.10;;;4.53;;
71162;SDS011;58858;50.948;6.566;2023-06-26T07:30:34;7.82;;;3.83;;
71162;SDS011;58858;50.948;6.566;2023-06-26T07:40:35;9.95;;;4.32;;
71162;SDS011;58858;50.948;6.566;2023-06-26T07:50:36;9.65;;;4.45;;
71162;SDS011;58858;50.948;6.566;2023-06-26T08:00:37;11.30;;;4.68;;
71162;SDS011;58858;50.948;6.566;2023-06-26T08:10:38;10.50;;;4.20;;
71162;SDS011;58858;50.948;6.566;2023-06-26T08:20:39;11.75;;;4.43;;
71162;SDS011;58858;50.948;6.566;2023-06-26T08:30:40;10.02;;;4.07;;
71162;SDS011;58858;50.948;6.566;2023-06-26T08:40:41;10.98;;;4.40;;
71162;SDS011;58858;50.948;6.566;2023-06-26T08:50:43;13.80;;;4.35;;
71162;SDS011;58858;50.948;6.566;2023-06-26T09:00:44;10.55;;;4.32;;
71162;SDS011;58858;50.948;6.566;2023-06-26T09:10:45;12.70;;;4.07;;
71162;SDS011;58858;50.948;6.566;2023-06-26T09:21:07;8.85;;;3.85;;
71162;SDS011;58858;50.948;6.566;2023-06-26T09:31:49;18.30;;;4.65;;
71162;SDS011;58858;50.948;6.566;2023-06-26T09:41:52;9.67;;;4.10;;
71162;SDS011;58858;50.948;6.566;2023-06-26T09:52:14;9.57;;;3.65;;
71162;SDS011;58858;50.948;6.566;2023-06-26T10:02:19;7.60;;;3.80;;
71162;SDS011;58858;50.948;6.566;2023-06-26T10:12:29;11.77;;;3.92;;
71162;SDS011;58858;50.948;6.566;2023-06-26T10:23:17;10.35;;;3.50;;
71162;SDS011;58858;50.948;6.566;2023-06-26T10:33:43;6.45;;;2.55;;
71162;SDS011;58858;50.948;6.566;2023-06-26T10:54:45;6.50;;;2.80;;
71162;SDS011;58858;50.948;6.566;2023-06-26T11:04:47;6.45;;;2.03;;
71162;SDS011;58858;50.948;6.566;2023-06-26T11:15:14;7.55;;;2.58;;
71162;SDS011;58858;50.948;6.566;2023-06-26T11:27:07;5.63;;;2.63;;
71162;SDS011;58858;50.948;6.566;2023-06-26T11:37:50;5.60;;;2.33;;
71162;SDS011;58858;50.948;6.566;2023-06-26T11:49:09;7.22;;;2.33;;
71162;SDS011;58858;50.948;6.566;2023-06-26T11:59:11;9.18;;;2.60;;
71162;SDS011;58858;50.948;6.566;2023-06-26T12:09:24;6.20;;;2.00;;
71162;SDS011;58858;50.948;6.566;2023-06-26T12:19:26;11.05;;;2.25;;
71162;SDS011;58858;50.948;6.566;2023-06-26T12:29:34;10.25;;;1.73;;
71162;SDS011;58858;50.948;6.566;2023-06-26T12:49:51;5.00;;;1.43;;
71162;SDS011;58858;50.948;6.566;2023-06-26T12:59:53;6.13;;;1.77;;
71162;SDS011;58858;50.948;6.566;2023-06-26T13:09:54;3.33;;;1.30;;
71162;SDS011;58858;50.948;6.566;2023-06-26T13:19:56;5.18;;;1.45;;
71162;SDS011;58858;50.948;6.566;2023-06-26T13:29:57;3.63;;;1.17;;
71162;SDS011;58858;50.948;6.566;2023-06-26T13:39:58;2.45;;;1.50;;
71162;SDS011;58858;50.948;6.566;2023-06-26T13:50:00;6.22;;;1.58;;
71162;SDS011;58858;50.948;6.566;2023-06-26T14:00:01;5.95;;;1.95;;
71162;SDS011;58858;50.948;6.566;2023-06-26T14:10:13;8.63;;;2.13;;
71162;SDS011;58858;50.948;6.566;2023-06-26T14:20:14;7.30;;;2.47;;
71162;SDS011;58858;50.948;6.566;2023-06-26T14:40:53;5.60;;;1.73;;
71162;SDS011;58858;50.948;6.566;2023-06-26T14:50:54;6.30;;;2.03;;
71162;SDS011;58858;50.948;6.566;2023-06-26T15:00:56;7.18;;;1.95;;
71162;SDS011;58858;50.948;6.566;2023-06-26T15:10:58;3.63;;;1.20;;
71162;SDS011;58858;50.948;6.566;2023-06-26T15:21:00;5.32;;;1.55;;
71162;SDS011;58858;50.948;6.566;2023-06-26T15:31:03;7.07;;;1.90;;
71162;SDS011;58858;50.948;6.566;2023-06-26T15:41:04;6.55;;;2.03;;
71162;SDS011;58858;50.948;6.566;2023-06-26T15:51:06;3.20;;;1.30;;
71162;SDS011;58858;50.948;6.566;2023-06-26T16:01:10;8.50;;;1.85;;
71162;SDS011;58858;50.948;6.566;2023-06-26T16:11:12;5.35;;;1.58;;
71162;SDS011;58858;50.948;6.566;2023-06-26T16:21:13;2.78;;;1.38;;
71162;SDS011;58858;50.948;6.566;2023-06-26T16:31:15;6.32;;;1.77;;
71162;SDS011;58858;50.948;6.566;2023-06-26T16:52:11;5.57;;;1.52;;
71162;SDS011;58858;50.948;6.566;2023-06-26T17:02:12;1.67;;;1.30;;
71162;SDS011;58858;50.948;6.566;2023-06-26T17:12:13;1.75;;;0.98;;
71162;SDS011;58858;50.948;6.566;2023-06-26T17:22:15;3.67;;;1.73;;
71162;SDS011;58858;50.948;6.566;2023-06-26T17:32:16;5.88;;;1.73;;
71162;SDS011;58858;50.948;6.566;2023-06-26T17:42:17;3.92;;;1.38;;
71162;SDS011;58858;50.948;6.566;2023-06-26T17:52:18;3.85;;;1.30;;
71162;SDS011;58858;50.948;6.566;2023-06-26T18:02:19;2.80;;;0.93;;
71162;SDS011;58858;50.948;6.566;2023-06-26T18:12:20;4.47;;;2.00;;
71162;SDS011;58858;50.948;6.566;2023-06-26T18:22:21;6.53;;;2.13;;
71162;SDS011;58858;50.948;6.566;2023-06-26T18:32:22;3.78;;;1.02;;
71162;SDS011;58858;50.948;6.566;2023-06-26T18:42:23;2.95;;;1.33;;
71162;SDS011;58858;50.948;6.566;2023-06-26T18:52:24;3.60;;;1.70;;
71162;SDS011;58858;50.948;6.566;2023-06-26T19:02:25;7.88;;;1.23;;
71162;SDS011;58858;50.948;6.566;2023-06-26T19:12:27;1.48;;;0.80;;
71162;SDS011;58858;50.948;6.566;2023-06-26T19:22:29;2.45;;;1.10;;
71162;SDS011;58858;50.948;6.566;2023-06-26T19:32:31;1.35;;;0.80;;
71162;SDS011;58858;50.948;6.566;2023-06-26T19:42:33;4.72;;;2.35;;
71162;SDS011;58858;50.948;6.566;2023-06-26T19:52:34;2.35;;;1.40;;
71162;SDS011;58858;50.948;6.566;2023-06-26T20:02:36;2.65;;;0.95;;
71162;SDS011;58858;50.948;6.566;2023-06-26T20:12:37;2.25;;;1.33;;
71162;SDS011;58858;50.948;6.566;2023-06-26T20:22:38;5.10;;;1.40;;
71162;SDS011;58858;50.948;6.566;2023-06-26T20:32:39;5.78;;;3.28;;
71162;SDS011;58858;50.948;6.566;2023-06-26T20:42:40;1.65;;;0.88;;
71162;SDS011;58858;50.948;6.566;2023-06-26T20:52:42;2.30;;;0.80;;
71162;SDS011;58858;50.948;6.566;2023-06-26T21:02:44;3.22;;;1.13;;
71162;SDS011;58858;50.948;6.566;2023-06-26T21:12:45;2.55;;;1.20;;
71162;SDS011;58858;50.948;6.566;2023-06-26T21:22:46;1.40;;;1.02;;
71162;SDS011;58858;50.948;6.566;2023-06-26T21:32:48;3.33;;;1.20;;
71162;SDS011;58858;50.948;6.566;2023-06-26T21:42:49;2.55;;;1.40;;
71162;SDS011;58858;50.948;6.566;2023-06-26T21:52:50;4.57;;;1.85;;
71162;SDS011;58858;50.948;6.566;2023-06-26T22:02:54;2.67;;;1.30;;
71162;SDS011;58858;50.948;6.566;2023-06-26T22:12:55;2.35;;;1.33;;
71162;SDS011;58858;50.948;6.566;2023-06-26T22:22:56;1.70;;;1.08;;
71162;SDS011;58858;50.948;6.566;2023-06-26T22:32:57;2.55;;;1.10;;
71162;SDS011;58858;50.948;6.566;2023-06-26T22:42:58;3.78;;;1.23;;
71162;SDS011;58858;50.948;6.566;2023-06-26T22:53:00;5.47;;;1.50;;
71162;SDS011;58858;50.948;6.566;2023-06-26T23:03:02;4.63;;;1.40;;
71162;SDS011;58858;50.948;6.566;2023-06-26T23:13:03;3.20;;;1.42;;
71162;SDS011;58858;50.948;6.566;2023-06-26T23:23:04;2.50;;;0.98;;
71162;SDS011;58858;50.948;6.566;2023-06-26T23:33:06;2.42;;;1.35;;
71162;SDS011;58858;50.948;6.566;2023-06-26T23:43:08;2.15;;;1.20;;
71162;SDS011;58858;50.948;6.566;2023-06-26T23:53:09;2.22;;;0.90;;
